createdAt,value
2019-01-06T00:00:20.092Z,93.69
2019-01-06T00:01:20.079Z,94.25
2019-01-06T00:02:20.125Z,93.22
2019-01-06T00:03:20.089Z,93.12
2019-01-06T00:04:20.049Z,93.32
2019-01-06T00:05:20.043Z,93.32
2019-01-06T00:06:20.020Z,92.91
2019-01-06T00:07:20.032Z,92.91
2019-01-06T00:08:20.006Z,92.86
2019-01-06T00:09:19.988Z,92.91
2019-01-06T00:10:19.977Z,92.91
2019-01-06T00:11:19.965Z,93.12
2019-01-06T00:12:19.979Z,92.80
2019-01-06T00:13:19.951Z,92.08
2019-01-06T00:14:19.943Z,92.91
2019-01-06T00:15:19.922Z,93.12
2019-01-06T00:16:19.912Z,92.60
2019-01-06T00:17:19.944Z,92.91
2019-01-06T00:18:19.890Z,93.12
2019-01-06T00:19:19.878Z,93.43
2019-01-06T00:20:19.880Z,93.22
2019-01-06T00:21:19.858Z,93.12
2019-01-06T00:22:19.844Z,93.01
2019-01-06T00:23:19.857Z,92.60
2019-01-06T00:24:19.826Z,92.40
2019-01-06T00:25:19.813Z,92.19
2019-01-06T00:26:19.804Z,92.60
2019-01-06T00:27:19.790Z,92.40
2019-01-06T00:28:19.799Z,92.08
2019-01-06T00:29:19.770Z,92.08
2019-01-06T00:30:19.787Z,92.91
2019-01-06T00:31:19.755Z,92.60
2019-01-06T00:32:19.735Z,92.19
2019-01-06T00:33:19.750Z,92.40
2019-01-06T00:34:19.712Z,91.98
2019-01-06T00:35:19.702Z,92.91
2019-01-06T00:36:19.691Z,92.40
2019-01-06T00:37:19.681Z,91.98
2019-01-06T00:38:19.690Z,92.70
2019-01-06T00:39:19.664Z,92.80
2019-01-06T00:40:19.646Z,92.80
2019-01-06T00:41:19.637Z,92.91
2019-01-06T00:42:19.633Z,92.80
2019-01-06T00:43:19.659Z,92.80
2019-01-06T00:44:19.605Z,92.60
2019-01-06T00:45:19.601Z,92.91
2019-01-06T00:46:19.584Z,92.70
2019-01-06T00:47:19.584Z,92.19
2019-01-06T00:48:19.561Z,92.08
2019-01-06T00:49:19.576Z,92.19
2019-01-06T00:50:19.540Z,92.40
2019-01-06T00:51:19.529Z,92.80
2019-01-06T00:52:19.515Z,92.80
2019-01-06T00:53:19.505Z,92.80
2019-01-06T00:54:19.517Z,93.01
2019-01-06T00:55:19.483Z,93.01
2019-01-06T00:56:19.474Z,91.92
2019-01-06T00:57:19.463Z,92.19
2019-01-06T00:58:19.449Z,93.01
2019-01-06T00:59:19.459Z,92.60
2019-01-06T01:00:19.426Z,92.70
2019-01-06T01:01:19.420Z,93.01
2019-01-06T01:02:19.405Z,93.37
2019-01-06T01:03:19.393Z,93.16
2019-01-06T01:04:19.405Z,92.80
2019-01-06T01:05:19.374Z,92.91
2019-01-06T01:06:19.361Z,93.05
2019-01-06T01:07:19.354Z,92.54
2019-01-06T01:08:19.342Z,93.37
2019-01-06T01:09:19.357Z,92.91
2019-01-06T01:10:19.317Z,92.80
2019-01-06T01:11:19.308Z,92.91
2019-01-06T01:12:19.297Z,92.74
2019-01-06T01:13:19.286Z,92.95
2019-01-06T01:14:19.293Z,92.91
2019-01-06T01:15:19.260Z,92.44
2019-01-06T01:16:19.266Z,93.26
2019-01-06T01:17:19.242Z,92.74
2019-01-06T01:18:19.229Z,93.37
2019-01-06T01:19:19.249Z,92.95
2019-01-06T01:20:19.208Z,93.16
2019-01-06T01:21:19.197Z,93.16
2019-01-06T01:22:19.184Z,92.95
2019-01-06T01:23:19.172Z,93.47
2019-01-06T01:24:19.198Z,93.62
2019-01-06T01:25:19.150Z,94.34
2019-01-06T01:26:19.140Z,93.98
2019-01-06T01:27:19.129Z,93.47
2019-01-06T01:28:19.116Z,93.88
2019-01-06T01:29:19.110Z,94.19
2019-01-06T01:30:27.453Z,93.88
2019-01-06T01:31:19.083Z,94.92
2019-01-06T01:32:19.071Z,94.71
2019-01-06T01:33:19.062Z,94.60
2019-01-06T01:34:19.049Z,94.50
2019-01-06T01:35:19.066Z,94.09
2019-01-06T01:36:19.028Z,94.60
2019-01-06T01:37:19.023Z,93.98
2019-01-06T01:38:19.006Z,93.57
2019-01-06T01:39:18.995Z,93.57
2019-01-06T01:40:19.005Z,93.68
2019-01-06T01:41:18.980Z,93.26
2019-01-06T01:42:18.962Z,93.57
2019-01-06T01:43:18.953Z,93.57
2019-01-06T01:44:18.945Z,93.16
2019-01-06T01:45:18.951Z,93.26
2019-01-06T01:46:18.922Z,93.57
2019-01-06T01:47:18.906Z,93.57
2019-01-06T01:48:18.894Z,93.68
2019-01-06T01:49:18.884Z,94.19
2019-01-06T01:50:18.895Z,94.71
2019-01-06T01:51:18.865Z,94.50
2019-01-06T01:52:18.852Z,93.78
2019-01-06T01:53:18.840Z,93.88
2019-01-06T01:54:18.829Z,94.60
2019-01-06T01:55:18.848Z,94.29
2019-01-06T01:56:18.808Z,94.19
2019-01-06T01:57:18.796Z,94.40
2019-01-06T01:58:18.785Z,94.29
2019-01-06T01:59:18.773Z,94.19
2019-01-06T02:00:18.763Z,93.57
2019-01-06T02:01:18.773Z,93.68
2019-01-06T02:02:18.744Z,94.19
2019-01-06T02:03:18.729Z,93.88
2019-01-06T02:04:18.722Z,93.26
2019-01-06T02:05:18.708Z,93.37
2019-01-06T02:06:18.719Z,94.40
2019-01-06T02:07:18.689Z,93.68
2019-01-06T02:08:18.680Z,93.37
2019-01-06T02:09:18.666Z,93.98
2019-01-06T02:10:18.654Z,93.78
2019-01-06T02:11:18.666Z,94.29
2019-01-06T02:12:18.637Z,94.81
2019-01-06T02:13:18.619Z,94.19
2019-01-06T02:14:18.616Z,94.29
2019-01-06T02:15:18.598Z,94.71
2019-01-06T02:16:18.609Z,94.50
2019-01-06T02:17:18.576Z,94.50
2019-01-06T02:18:18.566Z,94.40
2019-01-06T02:19:18.555Z,94.19
2019-01-06T02:20:18.547Z,94.19
2019-01-06T02:21:18.553Z,94.29
2019-01-06T02:22:18.529Z,94.50
2019-01-06T02:23:18.510Z,93.98
2019-01-06T02:24:18.499Z,94.19
2019-01-06T02:25:18.489Z,94.19
2019-01-06T02:26:18.497Z,94.50
2019-01-06T02:27:18.465Z,93.98
2019-01-06T02:28:18.456Z,94.19
2019-01-06T02:29:18.445Z,94.40
2019-01-06T02:30:18.432Z,93.88
2019-01-06T02:31:18.447Z,93.47
2019-01-06T02:32:18.410Z,92.95
2019-01-06T02:33:18.402Z,93.47
2019-01-06T02:34:18.388Z,93.26
2019-01-06T02:35:18.378Z,93.16
2019-01-06T02:36:18.366Z,93.05
2019-01-06T02:37:18.379Z,92.64
2019-01-06T02:38:18.342Z,93.05
2019-01-06T02:39:18.335Z,93.16
2019-01-06T02:40:18.323Z,93.16
2019-01-06T02:41:18.311Z,93.47
2019-01-06T02:42:18.326Z,93.57
2019-01-06T02:43:18.291Z,93.16
2019-01-06T02:44:18.280Z,93.47
2019-01-06T02:45:18.271Z,93.68
2019-01-06T02:46:18.256Z,93.05
2019-01-06T02:47:18.268Z,93.05
2019-01-06T02:48:18.233Z,93.26
2019-01-06T02:49:18.222Z,92.95
2019-01-06T02:50:18.216Z,93.78
2019-01-06T02:51:18.201Z,93.88
2019-01-06T02:52:18.215Z,94.71
2019-01-06T02:53:18.178Z,94.29
2019-01-06T02:54:18.168Z,93.88
2019-01-06T02:55:18.157Z,93.47
2019-01-06T02:56:18.146Z,93.37
2019-01-06T02:57:18.160Z,92.95
2019-01-06T02:58:18.124Z,93.05
2019-01-06T02:59:18.111Z,92.85
2019-01-06T03:00:18.101Z,93.05
2019-01-06T03:01:18.090Z,92.95
2019-01-06T03:02:18.120Z,92.64
2019-01-06T03:03:18.068Z,92.64
2019-01-06T03:04:18.057Z,93.47
2019-01-06T03:05:18.047Z,92.95
2019-01-06T03:06:18.037Z,93.26
2019-01-06T03:07:18.027Z,92.95
2019-01-06T03:08:18.036Z,93.16
2019-01-06T03:09:18.002Z,93.16
2019-01-06T03:10:17.993Z,93.47
2019-01-06T03:11:17.980Z,93.26
2019-01-06T03:12:17.971Z,92.85
2019-01-06T03:13:17.983Z,93.26
2019-01-06T03:14:17.950Z,93.16
2019-01-06T03:15:17.935Z,93.47
2019-01-06T03:16:17.926Z,93.57
2019-01-06T03:17:17.913Z,93.57
2019-01-06T03:18:17.927Z,93.26
2019-01-06T03:19:17.892Z,93.37
2019-01-06T03:20:17.881Z,93.16
2019-01-06T03:21:17.868Z,93.26
2019-01-06T03:22:17.861Z,93.16
2019-01-06T03:23:17.870Z,92.74
2019-01-06T03:24:17.843Z,93.26
2019-01-06T03:25:17.827Z,93.26
2019-01-06T03:26:17.816Z,93.47
2019-01-06T03:27:17.802Z,92.74
2019-01-06T03:28:17.845Z,93.16
2019-01-06T03:29:17.780Z,92.85
2019-01-06T03:30:17.776Z,93.47
2019-01-06T03:31:17.769Z,92.74
2019-01-06T03:32:17.753Z,93.05
2019-01-06T03:33:17.737Z,93.05
2019-01-06T03:34:17.747Z,93.47
2019-01-06T03:35:17.750Z,92.54
2019-01-06T03:36:17.704Z,93.16
2019-01-06T03:37:17.692Z,93.05
2019-01-06T03:38:17.682Z,93.05
2019-01-06T03:39:17.696Z,93.05
2019-01-06T03:40:17.659Z,93.05
2019-01-06T03:41:17.649Z,93.37
2019-01-06T03:42:17.668Z,93.05
2019-01-06T03:43:17.630Z,93.26
2019-01-06T03:44:17.638Z,92.85
2019-01-06T03:45:17.615Z,93.05
2019-01-06T03:46:17.595Z,92.95
2019-01-06T03:47:17.582Z,93.05
2019-01-06T03:48:17.576Z,93.26
2019-01-06T03:49:17.623Z,92.85
2019-01-06T03:50:17.548Z,92.85
2019-01-06T03:51:17.538Z,93.16
2019-01-06T03:52:17.528Z,93.16
2019-01-06T03:53:17.516Z,93.16
2019-01-06T03:54:17.508Z,92.95
2019-01-06T03:55:17.516Z,92.99
2019-01-06T03:56:17.483Z,92.85
2019-01-06T03:57:17.472Z,93.62
2019-01-06T03:58:17.464Z,94.19
2019-01-06T03:59:17.450Z,94.19
2019-01-06T04:00:17.460Z,94.19
2019-01-06T04:01:17.428Z,94.50
2019-01-06T04:02:17.417Z,93.78
2019-01-06T04:03:17.486Z,93.30
2019-01-06T04:04:17.395Z,93.93
2019-01-06T04:05:17.407Z,93.88
2019-01-06T04:06:17.372Z,94.23
2019-01-06T04:07:17.363Z,94.19
2019-01-06T04:08:17.351Z,94.40
2019-01-06T04:09:17.343Z,93.78
2019-01-06T04:10:17.633Z,93.57
2019-01-06T04:11:17.319Z,93.37
2019-01-06T04:12:17.310Z,93.26
2019-01-06T04:13:17.300Z,93.47
2019-01-06T04:14:17.285Z,93.68
2019-01-06T04:15:17.284Z,93.57
2019-01-06T04:16:17.295Z,93.26
2019-01-06T04:17:17.258Z,92.95
2019-01-06T04:18:17.244Z,93.26
2019-01-06T04:19:17.230Z,93.16
2019-01-06T04:20:17.222Z,93.47
2019-01-06T04:21:17.241Z,93.57
2019-01-06T04:22:17.198Z,93.47
2019-01-06T04:23:17.188Z,93.57
2019-01-06T04:24:17.174Z,93.47
2019-01-06T04:25:17.164Z,92.85
2019-01-06T04:26:17.229Z,92.95
2019-01-06T04:27:17.141Z,93.16
2019-01-06T04:28:17.136Z,93.57
2019-01-06T04:29:17.120Z,93.37
2019-01-06T04:30:17.109Z,93.16
2019-01-06T04:31:17.122Z,93.05
2019-01-06T04:32:17.095Z,93.05
2019-01-06T04:33:17.079Z,93.51
2019-01-06T04:34:17.063Z,93.93
2019-01-06T04:35:17.055Z,93.41
2019-01-06T04:36:17.063Z,93.88
2019-01-06T04:37:17.032Z,93.62
2019-01-06T04:38:17.020Z,93.62
2019-01-06T04:39:17.009Z,94.23
2019-01-06T04:40:16.999Z,94.29
2019-01-06T04:41:17.025Z,94.29
2019-01-06T04:42:16.980Z,93.88
2019-01-06T04:43:16.968Z,94.60
2019-01-06T04:44:16.954Z,93.57
2019-01-06T04:45:16.942Z,93.68
2019-01-06T04:46:16.931Z,93.47
2019-01-06T04:47:16.947Z,93.47
2019-01-06T04:48:16.911Z,93.57
2019-01-06T04:49:16.899Z,93.47
2019-01-06T04:50:16.887Z,93.78
2019-01-06T04:51:16.878Z,93.57
2019-01-06T04:52:16.888Z,93.57
2019-01-06T04:53:16.854Z,92.74
2019-01-06T04:54:16.846Z,93.47
2019-01-06T04:55:16.833Z,93.16
2019-01-06T04:56:16.825Z,93.16
2019-01-06T04:57:16.834Z,93.05
2019-01-06T04:58:16.800Z,93.16
2019-01-06T04:59:16.789Z,92.85
2019-01-06T05:00:16.779Z,92.85
2019-01-06T05:01:16.766Z,93.05
2019-01-06T05:02:16.792Z,92.95
2019-01-06T05:03:16.745Z,93.16
2019-01-06T05:04:16.741Z,93.05
2019-01-06T05:05:16.795Z,93.05
2019-01-06T05:06:16.714Z,93.05
2019-01-06T05:07:16.699Z,93.05
2019-01-06T05:08:16.721Z,93.37
2019-01-06T05:09:16.677Z,93.05
2019-01-06T05:10:16.668Z,93.30
2019-01-06T05:11:16.657Z,93.10
2019-01-06T05:12:16.648Z,93.62
2019-01-06T05:13:16.656Z,93.57
2019-01-06T05:14:16.623Z,93.51
2019-01-06T05:15:16.612Z,93.78
2019-01-06T05:16:16.608Z,93.57
2019-01-06T05:17:16.594Z,93.98
2019-01-06T05:18:16.601Z,93.98
2019-01-06T05:19:16.567Z,93.47
2019-01-06T05:20:16.559Z,93.26
2019-01-06T05:21:16.548Z,93.16
2019-01-06T05:22:16.535Z,93.37
2019-01-06T05:23:16.547Z,93.47
2019-01-06T05:24:16.511Z,93.47
2019-01-06T05:25:16.501Z,93.78
2019-01-06T05:26:16.491Z,93.05
2019-01-06T05:27:16.480Z,93.05
2019-01-06T05:28:16.491Z,92.85
2019-01-06T05:29:16.459Z,93.05
2019-01-06T05:30:16.447Z,93.16
2019-01-06T05:31:16.437Z,92.95
2019-01-06T05:32:16.423Z,93.16
2019-01-06T05:33:16.450Z,93.16
2019-01-06T05:34:16.402Z,92.95
2019-01-06T05:35:16.399Z,93.05
2019-01-06T05:36:16.382Z,92.89
2019-01-06T05:37:16.375Z,92.68
2019-01-06T05:38:16.357Z,93.05
2019-01-06T05:39:16.369Z,93.20
2019-01-06T05:40:16.336Z,93.30
2019-01-06T05:41:16.325Z,93.47
2019-01-06T05:42:16.315Z,93.41
2019-01-06T05:43:16.307Z,92.95
2019-01-06T05:44:16.318Z,93.41
2019-01-06T05:45:16.285Z,93.20
2019-01-06T05:46:16.270Z,93.88
2019-01-06T05:47:16.259Z,93.47
2019-01-06T05:48:16.247Z,93.16
2019-01-06T05:49:16.260Z,93.37
2019-01-06T05:50:16.225Z,93.47
2019-01-06T05:51:16.214Z,93.57
2019-01-06T05:52:16.204Z,93.47
2019-01-06T05:53:16.195Z,93.16
2019-01-06T05:54:16.204Z,93.05
2019-01-06T05:55:16.170Z,93.37
2019-01-06T05:56:16.162Z,93.37
2019-01-06T05:57:16.151Z,93.26
2019-01-06T05:58:16.137Z,93.26
2019-01-06T05:59:16.148Z,93.26
2019-01-06T06:00:16.116Z,93.57
2019-01-06T06:01:16.107Z,93.68
2019-01-06T06:02:16.094Z,93.26
2019-01-06T06:03:16.083Z,93.51
2019-01-06T06:04:16.094Z,94.40
2019-01-06T06:05:16.061Z,94.19
2019-01-06T06:06:16.052Z,94.40
2019-01-06T06:07:16.047Z,94.13
2019-01-06T06:08:16.027Z,94.34
2019-01-06T06:09:16.054Z,93.68
2019-01-06T06:10:16.004Z,93.93
2019-01-06T06:11:16.003Z,93.93
2019-01-06T06:12:15.983Z,93.62
2019-01-06T06:13:15.973Z,94.50
2019-01-06T06:14:15.970Z,94.44
2019-01-06T06:15:15.982Z,94.03
2019-01-06T06:16:15.939Z,94.19
2019-01-06T06:17:15.927Z,93.93
2019-01-06T06:18:15.917Z,94.13
2019-01-06T06:19:15.906Z,94.54
2019-01-06T06:20:15.922Z,94.44
2019-01-06T06:21:15.884Z,94.40
2019-01-06T06:22:15.874Z,94.65
2019-01-06T06:23:15.863Z,94.09
2019-01-06T06:24:15.854Z,94.75
2019-01-06T06:25:15.866Z,93.88
2019-01-06T06:26:15.829Z,94.34
2019-01-06T06:27:15.823Z,94.19
2019-01-06T06:28:15.818Z,94.13
2019-01-06T06:29:15.798Z,93.82
2019-01-06T06:30:15.808Z,94.29
2019-01-06T06:31:15.777Z,94.13
2019-01-06T06:32:15.762Z,94.13
2019-01-06T06:33:15.756Z,94.29
2019-01-06T06:34:15.742Z,94.19
2019-01-06T06:35:15.774Z,94.19
2019-01-06T06:36:15.722Z,94.54
2019-01-06T06:37:15.714Z,94.19
2019-01-06T06:38:15.698Z,94.19
2019-01-06T06:39:15.687Z,94.50
2019-01-06T06:40:15.679Z,94.92
2019-01-06T06:41:15.685Z,94.29
2019-01-06T06:42:15.656Z,94.29
2019-01-06T06:43:15.649Z,94.13
2019-01-06T06:44:15.632Z,93.82
2019-01-06T06:45:15.623Z,94.19
2019-01-06T06:46:15.633Z,93.88
2019-01-06T06:47:15.600Z,94.65
2019-01-06T06:48:15.590Z,94.03
2019-01-06T06:49:15.580Z,93.93
2019-01-06T06:50:15.567Z,94.75
2019-01-06T06:51:15.578Z,94.44
2019-01-06T06:52:15.543Z,94.09
2019-01-06T06:53:15.534Z,94.44
2019-01-06T06:54:15.522Z,94.44
2019-01-06T06:55:15.514Z,94.23
2019-01-06T06:56:15.537Z,93.88
2019-01-06T06:57:15.490Z,94.29
2019-01-06T06:58:15.483Z,94.40
2019-01-06T06:59:15.468Z,94.60
2019-01-06T07:00:15.457Z,94.19
2019-01-06T07:01:15.453Z,93.88
2019-01-06T07:02:15.460Z,93.57
2019-01-06T07:03:15.424Z,94.23
2019-01-06T07:04:15.413Z,94.29
2019-01-06T07:05:15.404Z,93.57
2019-01-06T07:06:15.394Z,93.88
2019-01-06T07:07:15.402Z,94.03
2019-01-06T07:08:15.368Z,94.34
2019-01-06T07:09:15.357Z,94.50
2019-01-06T07:10:15.347Z,94.29
2019-01-06T07:11:15.334Z,93.88
2019-01-06T07:12:15.348Z,93.88
2019-01-06T07:13:15.313Z,94.19
2019-01-06T07:14:15.304Z,94.19
2019-01-06T07:15:15.290Z,94.19
2019-01-06T07:16:15.285Z,93.57
2019-01-06T07:17:15.321Z,93.78
2019-01-06T07:18:15.257Z,93.68
2019-01-06T07:19:15.246Z,94.50
2019-01-06T07:20:15.247Z,93.88
2019-01-06T07:21:15.224Z,93.88
2019-01-06T07:22:15.225Z,94.40
2019-01-06T07:23:15.240Z,94.40
2019-01-06T07:24:15.193Z,93.57
2019-01-06T07:25:15.193Z,93.88
2019-01-06T07:26:15.174Z,93.47
2019-01-06T07:27:15.159Z,93.57
2019-01-06T07:28:15.171Z,93.98
2019-01-06T07:29:15.141Z,93.16
2019-01-06T07:30:15.126Z,93.37
2019-01-06T07:31:15.114Z,93.88
2019-01-06T07:32:15.103Z,93.68
2019-01-06T07:33:15.113Z,93.26
2019-01-06T07:34:15.081Z,93.57
2019-01-06T07:35:15.081Z,93.78
2019-01-06T07:36:15.058Z,93.88
2019-01-06T07:37:15.047Z,93.05
2019-01-06T07:38:15.100Z,93.26
2019-01-06T07:39:15.026Z,93.57
2019-01-06T07:40:15.018Z,93.16
2019-01-06T07:41:15.006Z,93.26
2019-01-06T07:42:15.001Z,93.93
2019-01-06T07:43:15.004Z,93.57
2019-01-06T07:44:14.973Z,93.62
2019-01-06T07:45:14.960Z,94.50
2019-01-06T07:46:14.949Z,94.34
2019-01-06T07:47:14.959Z,94.34
2019-01-06T07:48:14.961Z,94.29
2019-01-06T07:49:14.917Z,94.44
2019-01-06T07:50:14.909Z,93.98
2019-01-06T07:51:14.893Z,93.78
2019-01-06T07:52:14.882Z,94.50
2019-01-06T07:53:14.872Z,94.40
2019-01-06T07:54:14.891Z,94.29
2019-01-06T07:55:14.849Z,93.68
2019-01-06T07:56:14.837Z,93.47
2019-01-06T07:57:14.827Z,93.68
2019-01-06T07:58:14.816Z,93.47
2019-01-06T07:59:14.828Z,93.47
2019-01-06T08:00:15.388Z,93.16
2019-01-06T08:01:14.783Z,92.74
2019-01-06T08:02:14.771Z,93.10
2019-01-06T08:03:14.772Z,93.10
2019-01-06T08:04:14.772Z,92.74
2019-01-06T08:05:14.740Z,92.95
2019-01-06T08:06:14.730Z,93.26
2019-01-06T08:07:14.723Z,93.16
2019-01-06T08:08:14.705Z,93.10
2019-01-06T08:09:14.719Z,92.95
2019-01-06T08:10:14.684Z,93.26
2019-01-06T08:11:14.672Z,93.05
2019-01-06T08:12:14.813Z,92.64
2019-01-06T08:13:14.652Z,92.95
2019-01-06T08:14:14.662Z,92.95
2019-01-06T08:15:14.628Z,93.37
2019-01-06T08:16:14.619Z,93.37
2019-01-06T08:17:14.619Z,93.47
2019-01-06T08:18:14.601Z,93.05
2019-01-06T08:19:14.607Z,93.05
2019-01-06T08:20:14.576Z,92.95
2019-01-06T08:21:14.564Z,93.37
2019-01-06T08:22:14.551Z,93.16
2019-01-06T08:23:14.542Z,92.68
2019-01-06T08:24:14.565Z,93.51
2019-01-06T08:25:14.522Z,92.79
2019-01-06T08:26:14.507Z,93.05
2019-01-06T08:27:14.497Z,93.47
2019-01-06T08:28:14.505Z,93.10
2019-01-06T08:29:14.478Z,92.99
2019-01-06T08:30:14.487Z,92.95
2019-01-06T08:31:14.453Z,93.47
2019-01-06T08:32:14.449Z,93.05
2019-01-06T08:33:14.431Z,93.05
2019-01-06T08:34:14.420Z,93.16
2019-01-06T08:35:14.436Z,93.37
2019-01-06T08:36:14.398Z,93.16
2019-01-06T08:37:14.390Z,92.85
2019-01-06T08:38:14.376Z,92.95
2019-01-06T08:39:14.368Z,92.13
2019-01-06T08:40:14.429Z,92.74
2019-01-06T08:41:14.345Z,93.26
2019-01-06T08:42:14.336Z,92.95
2019-01-06T08:43:14.322Z,92.85
2019-01-06T08:44:14.323Z,93.16
2019-01-06T08:45:14.323Z,93.10
2019-01-06T08:46:14.292Z,93.10
2019-01-06T08:47:14.278Z,93.51
2019-01-06T08:48:14.266Z,93.57
2019-01-06T08:49:14.258Z,93.16
2019-01-06T08:50:14.268Z,93.41
2019-01-06T08:51:14.243Z,93.26
2019-01-06T08:52:14.429Z,93.57
2019-01-06T08:53:14.214Z,93.51
2019-01-06T08:54:14.228Z,93.10
2019-01-06T08:55:14.215Z,92.79
2019-01-06T08:56:14.180Z,93.05
2019-01-06T08:57:14.171Z,92.74
2019-01-06T08:58:14.158Z,93.16
2019-01-06T08:59:14.145Z,93.05
2019-01-06T09:00:14.170Z,93.05
2019-01-06T09:01:14.123Z,92.54
2019-01-06T09:02:14.115Z,93.05
2019-01-06T09:03:14.114Z,92.99
2019-01-06T09:04:14.122Z,93.05
2019-01-06T09:05:14.101Z,92.74
2019-01-06T09:06:14.092Z,93.20
2019-01-06T09:07:14.064Z,93.88
2019-01-06T09:08:14.049Z,93.47
2019-01-06T09:09:14.037Z,93.10
2019-01-06T09:10:14.026Z,92.79
2019-01-06T09:11:23.930Z,93.20
2019-01-06T09:12:14.120Z,92.64
2019-01-06T09:13:13.999Z,93.05
2019-01-06T09:14:13.988Z,93.37
2019-01-06T09:15:15.125Z,92.85
2019-01-06T09:16:13.989Z,92.64
2019-01-06T09:17:13.947Z,93.16
2019-01-06T09:18:14.611Z,92.54
2019-01-06T09:19:13.928Z,93.05
2019-01-06T09:20:22.238Z,93.57
2019-01-06T09:21:14.075Z,92.95
2019-01-06T09:22:13.891Z,92.95
2019-01-06T09:23:13.935Z,93.20
2019-01-06T09:24:18.091Z,93.10
2019-01-06T09:25:13.861Z,93.37
2019-01-06T09:26:13.869Z,92.85
2019-01-06T09:27:13.836Z,92.74
2019-01-06T09:28:13.823Z,92.85
2019-01-06T09:29:13.812Z,93.47
2019-01-06T09:30:13.805Z,93.26
2019-01-06T09:31:13.815Z,92.74
2019-01-06T09:32:13.783Z,93.05
2019-01-06T09:33:13.770Z,92.64
2019-01-06T09:34:13.758Z,92.95
2019-01-06T09:35:13.749Z,92.85
2019-01-06T09:36:13.926Z,92.74
2019-01-06T09:37:13.726Z,92.85
2019-01-06T09:38:13.713Z,93.05
2019-01-06T09:39:13.704Z,93.47
2019-01-06T09:40:13.691Z,93.78
2019-01-06T09:41:13.680Z,93.57
2019-01-06T09:42:13.691Z,93.47
2019-01-06T09:43:13.689Z,93.57
2019-01-06T09:44:13.648Z,94.09
2019-01-06T09:45:13.636Z,94.75
2019-01-06T09:46:13.625Z,93.37
2019-01-06T09:47:13.635Z,94.40
2019-01-06T09:48:13.606Z,94.29
2019-01-06T09:49:13.591Z,94.50
2019-01-06T09:50:13.580Z,94.29
2019-01-06T09:51:13.573Z,94.50
2019-01-06T09:52:13.624Z,93.26
2019-01-06T09:53:23.452Z,93.47
2019-01-06T09:54:13.545Z,93.16
2019-01-06T09:55:13.541Z,92.74
2019-01-06T09:56:13.516Z,93.05
2019-01-06T09:57:13.526Z,93.16
2019-01-06T09:58:13.495Z,93.05
2019-01-06T09:59:15.392Z,93.37
2019-01-06T10:00:13.473Z,93.37
2019-01-06T10:01:13.458Z,93.05
2019-01-06T10:02:13.481Z,92.85
2019-01-06T10:03:13.595Z,92.95
2019-01-06T10:04:13.431Z,92.85
2019-01-06T10:06:30.748Z,93.16
2019-01-06T10:07:30.760Z,93.05
2019-01-06T10:08:30.724Z,93.05
2019-01-06T10:09:30.727Z,93.05
2019-01-06T10:10:30.768Z,92.95
2019-01-06T10:11:30.724Z,93.16
2019-01-06T10:12:30.701Z,92.95
2019-01-06T10:13:30.677Z,93.26
2019-01-06T10:14:30.657Z,93.05
2019-01-06T10:15:30.656Z,93.37
2019-01-06T10:16:40.407Z,93.05
2019-01-06T10:17:39.924Z,93.05
2019-01-06T10:18:30.613Z,93.05
2019-01-06T10:19:30.601Z,93.05
2019-01-06T10:20:30.591Z,93.47
2019-01-06T10:21:30.577Z,93.16
2019-01-06T10:22:30.591Z,93.05
2019-01-06T10:23:30.560Z,92.64
2019-01-06T10:24:30.547Z,92.85
2019-01-06T10:25:39.997Z,92.74
2019-01-06T10:26:39.880Z,92.95
2019-01-06T10:27:30.544Z,92.95
2019-01-06T10:28:30.503Z,92.85
2019-01-06T10:29:30.489Z,92.95
2019-01-06T10:30:30.479Z,93.05
2019-01-06T10:31:30.467Z,93.37
2019-01-06T10:32:30.455Z,93.37
2019-01-06T10:33:30.467Z,93.16
2019-01-06T10:34:30.435Z,93.47
2019-01-06T10:35:30.427Z,93.01
2019-01-06T10:36:30.411Z,93.26
2019-01-06T10:37:30.407Z,93.57
2019-01-06T10:38:30.411Z,93.32
2019-01-06T10:39:30.410Z,92.74
2019-01-06T10:40:30.370Z,93.01
2019-01-06T10:41:30.357Z,91.98
2019-01-06T10:42:30.345Z,92.19
2019-01-06T10:43:30.355Z,92.60
2019-01-06T10:44:30.345Z,92.40
2019-01-06T10:45:30.312Z,92.08
2019-01-06T10:46:30.307Z,91.98
2019-01-06T10:47:30.289Z,91.92
2019-01-06T10:48:30.302Z,92.08
2019-01-06T10:49:30.270Z,91.98
2019-01-06T10:50:30.259Z,91.88
2019-01-06T10:51:30.266Z,92.60
2019-01-06T10:52:30.246Z,92.23
2019-01-06T10:53:30.386Z,92.13
2019-01-06T10:54:30.215Z,92.13
2019-01-06T10:55:30.212Z,92.13
2019-01-06T10:56:30.190Z,92.60
2019-01-06T10:57:30.206Z,92.64
2019-01-06T10:58:38.642Z,93.05
2019-01-06T10:59:30.158Z,93.16
2019-01-06T11:00:30.150Z,93.05
2019-01-06T11:01:30.134Z,93.37
2019-01-06T11:02:30.125Z,93.16
2019-01-06T11:04:20.942Z,93.47
2019-01-06T11:05:20.909Z,93.78
2019-01-06T11:06:20.895Z,93.88
2019-01-06T11:07:20.889Z,93.57
2019-01-06T11:08:20.877Z,93.12
2019-01-06T11:09:20.885Z,92.95
2019-01-06T11:10:20.864Z,93.16
2019-01-06T11:11:20.841Z,92.74
2019-01-06T11:12:20.829Z,92.85
2019-01-06T11:13:31.039Z,92.85
2019-01-06T11:14:20.973Z,93.05
2019-01-06T11:15:20.806Z,92.95
2019-01-06T11:16:20.787Z,92.95
2019-01-06T11:17:20.774Z,92.95
2019-01-06T11:18:20.762Z,93.26
2019-01-06T11:19:20.752Z,92.85
2019-01-06T11:20:20.768Z,93.26
2019-01-06T11:21:20.732Z,93.16
2019-01-06T11:22:20.983Z,93.05
2019-01-06T11:23:20.709Z,92.74
2019-01-06T11:24:20.699Z,92.85
2019-01-06T11:25:29.069Z,93.26
2019-01-06T11:26:20.676Z,93.05
2019-01-06T11:27:20.665Z,93.05
2019-01-06T11:28:20.654Z,93.05
2019-01-06T11:29:20.642Z,92.64
2019-01-06T11:30:20.653Z,93.16
2019-01-06T11:31:20.626Z,93.12
2019-01-06T11:32:20.612Z,93.05
2019-01-06T11:33:20.600Z,93.16
2019-01-06T11:34:20.590Z,93.12
2019-01-06T11:35:20.599Z,92.91
2019-01-06T11:36:20.565Z,92.91
2019-01-06T11:37:20.554Z,93.05
2019-01-06T11:38:20.544Z,93.47
2019-01-06T11:39:20.534Z,93.16
2019-01-06T11:40:20.545Z,93.16
2019-01-06T11:41:20.509Z,92.85
2019-01-06T11:42:20.515Z,93.16
2019-01-06T11:43:20.486Z,93.26
2019-01-06T11:44:20.476Z,93.26
2019-01-06T11:45:20.485Z,93.22
2019-01-06T11:46:28.764Z,93.47
2019-01-06T11:47:20.473Z,93.37
2019-01-06T11:48:20.431Z,93.12
2019-01-06T11:49:20.418Z,93.16
2019-01-06T11:50:20.495Z,93.16
2019-01-06T11:51:20.713Z,93.16
2019-01-06T11:52:20.389Z,93.78
2019-01-06T11:53:20.376Z,93.05
2019-01-06T11:54:20.364Z,92.85
2019-01-06T11:55:20.357Z,92.85
2019-01-06T11:56:20.379Z,92.95
2019-01-06T11:57:20.512Z,93.16
2019-01-06T11:58:20.327Z,92.74
2019-01-06T11:59:20.619Z,92.80
2019-01-06T12:00:20.298Z,92.80
2019-01-06T12:01:20.316Z,92.70
2019-01-06T12:02:20.282Z,93.05
2019-01-06T12:03:20.264Z,93.32
2019-01-06T12:04:20.326Z,93.63
2019-01-06T12:05:20.272Z,92.70
2019-01-06T12:06:20.470Z,92.80
2019-01-06T12:07:20.222Z,92.95
2019-01-06T12:08:20.207Z,92.74
2019-01-06T12:09:20.197Z,93.47
2019-01-06T12:10:20.196Z,93.47
2019-01-06T12:11:20.200Z,93.68
2019-01-06T12:12:20.167Z,94.50
2019-01-06T12:13:20.160Z,94.29
2019-01-06T12:14:28.502Z,94.40
2019-01-06T12:15:20.135Z,94.29
2019-01-06T12:16:20.145Z,93.73
2019-01-06T12:17:20.108Z,93.26
2019-01-06T12:18:20.130Z,93.63
2019-01-06T12:19:20.087Z,94.29
2019-01-06T12:20:20.076Z,94.29
2019-01-06T12:21:20.085Z,93.88
2019-01-06T12:22:20.053Z,93.98
2019-01-06T12:23:20.046Z,94.50
2019-01-06T12:24:20.030Z,93.88
2019-01-06T12:25:20.020Z,94.60
2019-01-06T12:26:20.066Z,94.04
2019-01-06T12:27:19.999Z,93.88
2019-01-06T12:28:19.998Z,93.84
2019-01-06T12:29:19.977Z,93.78
2019-01-06T12:30:19.967Z,94.92
2019-01-06T12:31:19.953Z,94.19
2019-01-06T12:32:19.967Z,94.71
2019-01-06T12:33:19.941Z,94.50
2019-01-06T12:34:19.922Z,94.29
2019-01-06T12:35:19.910Z,94.19
2019-01-06T12:36:19.896Z,94.29
2019-01-06T12:37:19.907Z,94.29
2019-01-06T12:38:19.875Z,94.46
2019-01-06T12:39:19.864Z,94.15
2019-01-06T12:40:19.854Z,94.15
2019-01-06T12:41:19.843Z,94.04
2019-01-06T12:42:19.854Z,94.04
2019-01-06T12:43:19.824Z,94.15
2019-01-06T12:44:19.843Z,94.25
2019-01-06T12:45:19.799Z,94.15
2019-01-06T12:46:19.790Z,94.46
2019-01-06T12:47:19.804Z,93.32
2019-01-06T12:48:19.763Z,93.88
2019-01-06T12:49:19.765Z,93.94
2019-01-06T12:50:19.745Z,93.88
2019-01-06T12:51:19.730Z,94.71
2019-01-06T12:52:19.744Z,94.25
2019-01-06T12:53:19.709Z,94.40
2019-01-06T12:54:19.699Z,94.29